La Cassidaigne — FT7120 — position and weather

sailwx.info

Track history (hours):
 
Tides and Currents Weather Stations Pressure Air Temp Water Temp Dewpoint Dewpoint Depression Visibility Wind Speed Wind Dir Waves Ship Positions

La Cassidaigne

Last reported at 2016-May-06 13:22 UTC. Time now 2016-May-06 18:47 UTC.
Position N 43°24' E 004°59'.

Length 16 m; draft 1 m.

Type: Other ship. MMSI: 227005760.

Date/timePositionNaut miles runAvg speedWind from/ knotsBaromVisibWave heightAir tempDewpointWater temp
2016-May-06 13:22N 43°24' E 004°59'0 0.0
2016-May-06 12:33N 43°24' E 004°59'0 0.0
2016-May-06 11:33N 43°24' E 004°59'0 0.0
2016-May-06 10:33N 43°24' E 004°59'0 0.0
2016-May-06 09:33N 43°24' E 004°59'0 0.0
2016-May-06 08:33N 43°24' E 004°59'0 0.0
2016-May-06 07:33N 43°24' E 004°59'0 0.0
2016-May-06 06:33N 43°24' E 004°59'0 0.0
2016-May-05 19:08N 43°24' E 004°59'0 0.0
2016-May-05 18:33N 43°24' E 004°59'0 0.0
2016-May-05 17:33N 43°24' E 004°59'1 0.6
2016-May-05 16:33N 43°24' E 004°59'1 0.1
2016-May-05 08:14N 43°24' E 004°59'0 0.0
2016-May-05 07:33N 43°24' E 004°59'0 0.0
2016-May-05 06:33N 43°24' E 004°59'0 0.0
2016-May-05 05:33N 43°24' E 004°59'3 3.1
2016-May-05 04:34N 43°22' E 004°56'3 0.1
2016-May-03 06:25N 43°24' E 004°59'0 0.5
2016-May-03 05:33N 43°24' E 004°59'4 0.2
2016-May-02 13:33N 43°22' E 004°56'4 3.5
2016-May-02 12:33N 43°24' E 004°59'0 0.0
2016-May-02 11:33N 43°24' E 004°59'0 0.0
2016-May-02 10:33N 43°24' E 004°59'0 0.0
2016-May-02 09:33N 43°24' E 004°59'0 0.5
2016-May-02 08:33N 43°24' E 004°59'0 0.5
2016-May-02 07:33N 43°24' E 004°59'0 0.0
2016-May-02 06:33N 43°24' E 004°59'0 0.0
2016-Apr-30 15:33N 43°24' E 004°59'0 0.2
2016-Apr-30 14:33N 43°24' E 004°59'2 1.6
2016-Apr-30 13:33N 43°24' E 004°57'1 1.0
2016-Apr-30 12:33N 43°24' E 004°58'1 0.9
2016-Apr-30 11:33N 43°24' E 004°59'1 1.2
2016-Apr-30 10:33N 43°23' E 004°58'3 0.2
2016-Apr-29 18:33N 43°21' E 004°60'4 3.6
2016-Apr-29 17:33N 43°24' E 004°59'0 0.0
2016-Apr-29 16:33N 43°24' E 004°59'2 2.1
2016-Apr-29 15:33N 43°22' E 004°59'2 2.1
2016-Apr-29 14:33N 43°24' E 004°59'1 1.3
2016-Apr-29 13:33N 43°23' E 004°59'1 1.3
2016-Apr-29 12:33N 43°24' E 004°59'0 0.0
2016-Apr-29 11:33N 43°24' E 004°59'2 2.2
2016-Apr-29 10:33N 43°22' E 004°59'2 2.1
2016-Apr-29 09:33N 43°24' E 004°59'0 0.0
2016-Apr-29 08:33N 43°24' E 004°59'0 0.0
2016-Apr-29 07:33N 43°24' E 004°59'0 0.0
2016-Apr-29 06:33N 43°24' E 004°59'0 0.0
2016-Apr-28 15:33N 43°24' E 004°59'1 0.7
2016-Apr-28 14:33N 43°24' E 004°59'1 0.7
2016-Apr-28 13:33N 43°24' E 004°59'0 0.0
2016-Apr-28 12:33N 43°24' E 004°59'0 0.0
2016-Apr-28 11:33N 43°24' E 004°59'0 0.0
2016-Apr-28 10:34N 43°24' E 004°59'0 0.0
2016-Apr-28 09:33N 43°24' E 004°59'0 0.0
2016-Apr-28 08:33N 43°24' E 004°59'0 0.0
2016-Apr-28 07:34N 43°24' E 004°59'0 0.0
2016-Apr-28 06:34N 43°24' E 004°59'3 0.2
2016-Apr-27 14:32N 43°22' E 004°57'3 3.3
2016-Apr-27 13:33N 43°24' E 004°59'0 0.0
2016-Apr-27 12:34N 43°24' E 004°59'4 3.0
2016-Apr-27 11:20N 43°21' E 005°00'4 4.7
2016-Apr-27 10:33N 43°24' E 004°59'0 0.0
2016-Apr-27 09:33N 43°24' E 004°59'0 0.0
2016-Apr-27 08:33N 43°24' E 004°59'0 0.0
2016-Apr-27 07:33N 43°24' E 004°59'0 0.0
2016-Apr-27 06:33N 43°24' E 004°59'0 0.0
2016-Apr-26 15:33N 43°24' E 004°59'0 0.0
2016-Apr-26 14:33N 43°24' E 004°59'0 0.0
2016-Apr-26 13:33N 43°24' E 004°59'  
Track history (hours):
 
Tides and Currents Weather Stations Pressure Air Temp Water Temp Dewpoint Dewpoint Depression Visibility Wind Speed Wind Dir Waves Ship Positions

La Cassidaigne

Last reported at 2016-May-06 13:22 UTC. Time now 2016-May-06 18:47 UTC.
Position N 43°24' E 004°59'.

Length 16 m; draft 1 m.

Type: Other ship. MMSI: 227005760.

Date/timePositionNaut miles runAvg speedWind from/ knotsBaromVisibWave heightAir tempDewpointWater temp
2016-May-06 13:22N 43°24' E 004°59'0 0.0
2016-May-06 12:33N 43°24' E 004°59'0 0.0
2016-May-06 11:33N 43°24' E 004°59'0 0.0
2016-May-06 10:33N 43°24' E 004°59'0 0.0
2016-May-06 09:33N 43°24' E 004°59'0 0.0
2016-May-06 08:33N 43°24' E 004°59'0 0.0
2016-May-06 07:33N 43°24' E 004°59'0 0.0
2016-May-06 06:33N 43°24' E 004°59'0 0.0
2016-May-05 19:08N 43°24' E 004°59'0 0.0
2016-May-05 18:33N 43°24' E 004°59'0 0.0
2016-May-05 17:33N 43°24' E 004°59'1 0.6
2016-May-05 16:33N 43°24' E 004°59'1 0.1
2016-May-05 08:14N 43°24' E 004°59'0 0.0
2016-May-05 07:33N 43°24' E 004°59'0 0.0
2016-May-05 06:33N 43°24' E 004°59'0 0.0
2016-May-05 05:33N 43°24' E 004°59'3 3.1
2016-May-05 04:34N 43°22' E 004°56'3 0.1
2016-May-03 06:25N 43°24' E 004°59'0 0.5
2016-May-03 05:33N 43°24' E 004°59'4 0.2
2016-May-02 13:33N 43°22' E 004°56'4 3.5
2016-May-02 12:33N 43°24' E 004°59'0 0.0
2016-May-02 11:33N 43°24' E 004°59'0 0.0
2016-May-02 10:33N 43°24' E 004°59'0 0.0
2016-May-02 09:33N 43°24' E 004°59'0 0.5
2016-May-02 08:33N 43°24' E 004°59'0 0.5
2016-May-02 07:33N 43°24' E 004°59'0 0.0
2016-May-02 06:33N 43°24' E 004°59'0 0.0
2016-Apr-30 15:33N 43°24' E 004°59'0 0.2
2016-Apr-30 14:33N 43°24' E 004°59'2 1.6
2016-Apr-30 13:33N 43°24' E 004°57'1 1.0
2016-Apr-30 12:33N 43°24' E 004°58'1 0.9
2016-Apr-30 11:33N 43°24' E 004°59'1 1.2
2016-Apr-30 10:33N 43°23' E 004°58'3 0.2
2016-Apr-29 18:33N 43°21' E 004°60'4 3.6
2016-Apr-29 17:33N 43°24' E 004°59'0 0.0
2016-Apr-29 16:33N 43°24' E 004°59'2 2.1
2016-Apr-29 15:33N 43°22' E 004°59'2 2.1
2016-Apr-29 14:33N 43°24' E 004°59'1 1.3
2016-Apr-29 13:33N 43°23' E 004°59'1 1.3
2016-Apr-29 12:33N 43°24' E 004°59'0 0.0
2016-Apr-29 11:33N 43°24' E 004°59'2 2.2
2016-Apr-29 10:33N 43°22' E 004°59'2 2.1
2016-Apr-29 09:33N 43°24' E 004°59'0 0.0
2016-Apr-29 08:33N 43°24' E 004°59'0 0.0
2016-Apr-29 07:33N 43°24' E 004°59'0 0.0
2016-Apr-29 06:33N 43°24' E 004°59'0 0.0
2016-Apr-28 15:33N 43°24' E 004°59'1 0.7
2016-Apr-28 14:33N 43°24' E 004°59'1 0.7
2016-Apr-28 13:33N 43°24' E 004°59'0 0.0
2016-Apr-28 12:33N 43°24' E 004°59'0 0.0
2016-Apr-28 11:33N 43°24' E 004°59'0 0.0
2016-Apr-28 10:34N 43°24' E 004°59'0 0.0
2016-Apr-28 09:33N 43°24' E 004°59'0 0.0
2016-Apr-28 08:33N 43°24' E 004°59'0 0.0
2016-Apr-28 07:34N 43°24' E 004°59'0 0.0
2016-Apr-28 06:34N 43°24' E 004°59'3 0.2
2016-Apr-27 14:32N 43°22' E 004°57'3 3.3
2016-Apr-27 13:33N 43°24' E 004°59'0 0.0
2016-Apr-27 12:34N 43°24' E 004°59'4 3.0
2016-Apr-27 11:20N 43°21' E 005°00'4 4.7
2016-Apr-27 10:33N 43°24' E 004°59'0 0.0
2016-Apr-27 09:33N 43°24' E 004°59'0 0.0
2016-Apr-27 08:33N 43°24' E 004°59'0 0.0
2016-Apr-27 07:33N 43°24' E 004°59'0 0.0
2016-Apr-27 06:33N 43°24' E 004°59'0 0.0
2016-Apr-26 15:33N 43°24' E 004°59'0 0.0
2016-Apr-26 14:33N 43°24' E 004°59'0 0.0
2016-Apr-26 13:33N 43°24' E 004°59'  

Dump ship's entire track history